Terminal Aerodrome Forecast
Issued by NWS

Home | Current Version | Previous Version | Text Only | Print | Product List | Glossary On
Versions: 1 2 3 4 5 6 7 8 9 10 11 12 13 14 15 16 17
000
FTUS41 KBGM 272330
TAFITH
TAF
KITH 272330Z 2800/2824 VRB03KT P6SM BKN050
     FM280400 VRB04KT P6SM SCT030
      TEMPO 2804/2808 BKN030
     FM281600 28005KT P6SM SCT040=

USA.gov is the U.S. government's official web portal to all federal, state and local government web resources and services.